createdAt,value
2022-11-05T00:01:14.370Z,75.26
2022-11-05T00:03:59.332Z,74.88
2022-11-05T00:06:44.439Z,75.21
2022-11-05T00:09:29.676Z,74.80
2022-11-05T00:12:20.432Z,74.45
2022-11-05T00:15:05.686Z,75.03
2022-11-05T00:17:32.363Z,75.60
2022-11-05T00:19:59.198Z,75.17
2022-11-05T00:22:47.383Z,75.47
2022-11-05T00:25:14.023Z,75.20
2022-11-05T00:27:51.603Z,75.46
2022-11-05T00:30:24.042Z,74.99
2022-11-05T00:32:52.417Z,74.64
2022-11-05T00:35:21.312Z,75.74
2022-11-05T00:37:50.383Z,75.58
2022-11-05T00:40:17.747Z,75.47
2022-11-05T00:43:03.022Z,75.94
2022-11-05T00:45:30.879Z,76.11
2022-11-05T00:48:16.279Z,76.26
2022-11-05T00:50:42.794Z,76.56
2022-11-05T00:53:09.505Z,76.42
2022-11-05T00:55:41.858Z,75.85
2022-11-05T00:58:12.070Z,76.62
2022-11-05T01:00:44.550Z,75.99
2022-11-05T01:03:14.229Z,76.39
2022-11-05T01:05:47.132Z,76.41
2022-11-05T01:08:14.767Z,76.18
2022-11-05T01:10:52.419Z,76.66
2022-11-05T01:13:22.163Z,76.94
2022-11-05T01:15:50.886Z,76.39
2022-11-05T01:18:18.912Z,76.79
2022-11-05T01:20:46.180Z,76.22
2022-11-05T01:23:13.876Z,75.77
2022-11-05T01:25:42.017Z,75.53
2022-11-05T01:28:09.621Z,76.06
2022-11-05T01:30:36.986Z,75.93
2022-11-05T01:33:03.578Z,75.21
2022-11-05T01:35:30.083Z,75.84
2022-11-05T01:37:56.487Z,74.92
2022-11-05T01:40:24.283Z,75.76
2022-11-05T01:42:51.002Z,75.47
2022-11-05T01:45:26.656Z,74.39
2022-11-05T01:48:03.076Z,75.16
2022-11-05T01:50:49.245Z,75.54
2022-11-05T01:53:26.974Z,75.32
2022-11-05T01:56:07.928Z,75.39
2022-11-05T01:58:59.455Z,75.92
2022-11-05T02:01:26.347Z,76.36
2022-11-05T02:03:57.959Z,76.12
2022-11-05T02:06:27.361Z,76.11
2022-11-05T02:09:15.819Z,75.48
2022-11-05T02:11:42.452Z,76.47
2022-11-05T02:14:08.858Z,76.24
2022-11-05T02:17:12.974Z,76.21
2022-11-05T02:20:09.397Z,76.09
2022-11-05T02:23:20.521Z,75.78
2022-11-05T02:26:24.739Z,76.63
2022-11-05T02:29:06.565Z,76.98
2022-11-05T02:31:39.631Z,76.41
2022-11-05T02:34:24.800Z,75.75
2022-11-05T02:37:13.051Z,76.03
2022-11-05T02:40:09.705Z,75.74
2022-11-05T02:42:48.614Z,75.94
2022-11-05T02:45:28.792Z,75.77
2022-11-05T02:48:07.637Z,75.65
2022-11-05T02:50:40.100Z,75.95
2022-11-05T02:53:45.111Z,74.89
2022-11-05T02:56:39.376Z,74.77
2022-11-05T02:59:05.858Z,75.24
2022-11-05T03:01:33.975Z,75.24
2022-11-05T03:04:06.654Z,75.04
2022-11-05T03:07:03.839Z,75.72
2022-11-05T03:09:47.147Z,75.50
2022-11-05T03:12:22.728Z,76.07
2022-11-05T03:15:15.475Z,74.91
2022-11-05T03:18:13.023Z,75.74
2022-11-05T03:20:51.554Z,75.11
2022-11-05T03:23:27.065Z,75.39
2022-11-05T03:26:06.538Z,75.18
2022-11-05T03:28:39.726Z,75.06
2022-11-05T03:31:07.876Z,76.29
2022-11-05T03:33:38.541Z,76.15
2022-11-05T03:36:13.847Z,75.39
2022-11-05T03:38:44.840Z,75.82
2022-11-05T03:41:15.156Z,75.67
2022-11-05T03:43:46.806Z,76.11
2022-11-05T03:46:24.624Z,75.71
2022-11-05T03:48:55.360Z,76.19
2022-11-05T03:51:46.607Z,76.11
2022-11-05T03:54:13.588Z,75.76
2022-11-05T03:56:52.079Z,75.30
2022-11-05T03:59:20.004Z,76.24
2022-11-05T04:01:47.828Z,76.55
2022-11-05T04:04:14.487Z,76.70
2022-11-05T04:06:59.690Z,76.08
2022-11-05T04:09:45.319Z,75.98
2022-11-05T04:12:30.065Z,75.64
2022-11-05T04:14:56.961Z,75.67
2022-11-05T04:17:23.317Z,75.96
2022-11-05T04:20:08.304Z,75.46
2022-11-05T04:22:54.721Z,75.97
2022-11-05T04:25:22.206Z,76.22
2022-11-05T04:27:48.699Z,76.16
2022-11-05T04:30:20.322Z,75.77
2022-11-05T04:33:05.391Z,75.88
2022-11-05T04:35:34.984Z,74.98
2022-11-05T04:38:02.423Z,75.62
2022-11-05T04:40:29.866Z,75.05
2022-11-05T04:42:57.092Z,75.78
2022-11-05T04:45:25.156Z,75.73
2022-11-05T04:47:53.347Z,76.49
2022-11-05T04:50:20.079Z,76.75
2022-11-05T04:52:46.509Z,76.44
2022-11-05T04:55:14.565Z,76.23
2022-11-05T04:57:41.113Z,77.25
2022-11-05T05:00:09.126Z,77.34
2022-11-05T05:02:36.532Z,77.33
2022-11-05T05:05:03.352Z,77.26
2022-11-05T05:07:29.793Z,77.11
2022-11-05T05:09:56.318Z,77.31
2022-11-05T05:12:23.074Z,77.50
2022-11-05T05:14:49.583Z,77.38
2022-11-05T05:17:16.581Z,76.51
2022-11-05T05:20:02.067Z,76.44
2022-11-05T05:22:29.213Z,76.18
2022-11-05T05:24:56.672Z,76.37
2022-11-05T05:27:24.064Z,76.84
2022-11-05T05:29:50.631Z,76.41
2022-11-05T05:32:17.263Z,75.84
2022-11-05T05:34:43.639Z,75.95
2022-11-05T05:37:10.233Z,76.29
2022-11-05T05:39:36.646Z,75.54
2022-11-05T05:42:03.101Z,75.74
2022-11-05T05:44:29.454Z,75.85
2022-11-05T05:46:55.887Z,75.64
2022-11-05T05:49:22.412Z,75.75
2022-11-05T05:51:49.728Z,77.19
2022-11-05T05:54:16.598Z,77.09
2022-11-05T05:56:44.289Z,77.22
2022-11-05T05:59:10.955Z,76.17
2022-11-05T06:01:37.693Z,76.14
2022-11-05T06:04:04.409Z,76.17
2022-11-05T06:06:31.113Z,76.66
2022-11-05T06:08:57.670Z,76.24
2022-11-05T06:11:24.972Z,76.35
2022-11-05T06:13:51.714Z,76.16
2022-11-05T06:16:19.434Z,77.04
2022-11-05T06:18:46.109Z,77.16
2022-11-05T06:21:14.824Z,76.80
2022-11-05T06:23:42.773Z,77.00
2022-11-05T06:26:15.692Z,77.29
2022-11-05T06:28:42.447Z,77.91
2022-11-05T06:31:10.879Z,77.91
2022-11-05T06:33:37.436Z,77.94
2022-11-05T06:36:05.917Z,78.47
2022-11-05T06:38:34.962Z,78.13
2022-11-05T06:41:07.235Z,78.10
2022-11-05T06:43:36.742Z,78.22
2022-11-05T06:46:03.394Z,78.26
2022-11-05T06:48:30.116Z,78.81
2022-11-05T06:50:56.504Z,79.09
2022-11-05T06:53:23.578Z,78.66
2022-11-05T06:55:50.013Z,79.21
2022-11-05T06:58:16.474Z,79.20
2022-11-05T07:00:43.027Z,80.16
2022-11-05T07:03:11.880Z,80.03
2022-11-05T07:05:42.139Z,80.64
2022-11-05T07:08:08.554Z,80.57
2022-11-05T07:10:34.965Z,80.44
2022-11-05T07:13:05.125Z,80.26
2022-11-05T07:15:34.529Z,80.65
2022-11-05T07:18:01.250Z,80.54
2022-11-05T07:20:33.580Z,80.32
2022-11-05T07:23:06.293Z,79.88
2022-11-05T07:25:33.849Z,80.23
2022-11-05T07:28:00.431Z,80.05
2022-11-05T07:30:28.298Z,79.90
2022-11-05T07:32:55.066Z,79.83
2022-11-05T07:35:21.464Z,79.42
2022-11-05T07:37:49.997Z,79.35
2022-11-05T07:40:19.328Z,79.66
2022-11-05T07:42:48.178Z,79.71
2022-11-05T07:45:15.550Z,80.07
2022-11-05T07:47:53.141Z,79.85
2022-11-05T07:50:21.945Z,79.76
2022-11-05T07:52:48.927Z,79.98
2022-11-05T07:55:16.044Z,80.41
2022-11-05T07:57:46.898Z,79.76
2022-11-05T08:00:16.116Z,80.46
2022-11-05T08:02:43.234Z,79.66
2022-11-05T08:05:10.572Z,79.70
2022-11-05T08:07:36.961Z,79.54
2022-11-05T08:10:04.267Z,78.93
2022-11-05T08:12:33.459Z,79.40
2022-11-05T08:14:59.817Z,78.95
2022-11-05T08:17:26.355Z,79.57
2022-11-05T08:19:52.718Z,78.70
2022-11-05T08:22:19.304Z,78.71
2022-11-05T08:24:45.708Z,78.59
2022-11-05T08:27:12.378Z,79.10
2022-11-05T08:29:38.882Z,78.32
2022-11-05T08:32:05.437Z,78.08
2022-11-05T08:34:31.903Z,78.17
2022-11-05T08:37:00.771Z,77.90
2022-11-05T08:39:27.543Z,77.37
2022-11-05T08:41:54.052Z,78.51
2022-11-05T08:44:20.528Z,77.80
2022-11-05T08:46:46.925Z,77.51
2022-11-05T08:49:13.295Z,77.17
2022-11-05T08:51:39.877Z,77.50
2022-11-05T08:54:06.637Z,77.81
2022-11-05T08:56:33.034Z,77.03
2022-11-05T08:59:00.746Z,76.49
2022-11-05T09:01:27.377Z,77.09
2022-11-05T09:03:54.215Z,76.16
2022-11-05T09:06:20.737Z,77.16
2022-11-05T09:08:47.330Z,75.94
2022-11-05T09:11:14.224Z,76.98
2022-11-05T09:13:40.707Z,75.50
2022-11-05T09:16:18.074Z,75.96
2022-11-05T09:18:44.523Z,75.75
2022-11-05T09:21:11.119Z,75.60
2022-11-05T09:23:37.654Z,75.28
2022-11-05T09:26:04.166Z,75.69
2022-11-05T09:28:32.301Z,75.82
2022-11-05T09:30:58.805Z,75.05
2022-11-05T09:33:26.771Z,74.70
2022-11-05T09:35:53.895Z,73.72
2022-11-05T09:38:20.492Z,73.33
2022-11-05T09:41:14.714Z,72.85
2022-11-05T09:43:49.037Z,72.37
2022-11-05T09:46:21.967Z,72.88
2022-11-05T09:48:55.427Z,72.15
2022-11-05T09:51:24.094Z,70.97
2022-11-05T09:53:51.046Z,71.46
2022-11-05T09:56:27.005Z,69.05
2022-11-05T09:59:05.143Z,67.90
2022-11-05T10:01:36.068Z,64.19
2022-11-05T10:04:09.918Z,59.88
2022-11-05T10:06:42.846Z,57.25
2022-11-05T10:09:19.094Z,54.34
2022-11-05T10:11:50.274Z,53.46
2022-11-05T10:14:23.771Z,51.58
2022-11-05T10:17:00.213Z,48.94
2022-11-05T10:19:41.557Z,47.09
2022-11-05T10:22:13.654Z,46.85
2022-11-05T10:24:43.796Z,46.16
2022-11-05T10:27:21.051Z,44.33
2022-11-05T10:29:48.592Z,44.30
2022-11-05T10:32:27.711Z,44.96
2022-11-05T10:34:58.267Z,47.17
2022-11-05T10:37:25.279Z,49.58
2022-11-05T10:39:51.758Z,50.25
2022-11-05T10:42:38.189Z,50.98
2022-11-05T10:45:20.451Z,52.57
2022-11-05T10:48:18.680Z,52.55
2022-11-05T10:50:45.722Z,52.34
2022-11-05T10:53:20.345Z,53.54
2022-11-05T10:55:49.399Z,52.82
2022-11-05T10:58:15.671Z,54.61
2022-11-05T11:00:58.430Z,55.39
2022-11-05T11:03:43.486Z,55.74
2022-11-05T11:06:26.488Z,55.23
2022-11-05T11:08:56.822Z,56.44
2022-11-05T11:11:34.167Z,53.32
2022-11-05T11:14:19.574Z,49.17
2022-11-05T11:16:48.275Z,48.81
2022-11-05T11:19:20.569Z,45.23
2022-11-05T11:21:47.561Z,43.39
2022-11-05T11:24:23.288Z,40.36
2022-11-05T11:26:49.735Z,40.97
2022-11-05T11:29:26.624Z,43.77
2022-11-05T11:31:55.756Z,46.87
2022-11-05T11:34:27.125Z,48.49
2022-11-05T11:37:06.179Z,50.84
2022-11-05T11:39:33.717Z,49.49
2022-11-05T11:42:12.817Z,46.00
2022-11-05T11:44:46.548Z,42.27
2022-11-05T11:47:16.720Z,39.35
2022-11-05T11:49:51.154Z,38.06
2022-11-05T11:52:33.640Z,35.02
2022-11-05T11:55:09.226Z,33.93
2022-11-05T11:57:44.591Z,32.92
2022-11-05T12:00:11.752Z,33.07
2022-11-05T12:03:00.506Z,31.51
2022-11-05T12:05:53.031Z,31.26
2022-11-05T12:08:45.014Z,31.73
2022-11-05T12:11:21.354Z,29.93
2022-11-05T12:14:12.292Z,31.20
2022-11-05T12:16:58.607Z,31.01
2022-11-05T12:19:59.290Z,33.84
2022-11-05T12:22:37.708Z,35.83
2022-11-05T12:25:22.716Z,37.76
2022-11-05T12:28:07.437Z,38.38
2022-11-05T12:30:48.721Z,40.64
2022-11-05T12:33:27.345Z,41.61
2022-11-05T12:36:11.727Z,43.21
2022-11-05T12:39:19.128Z,44.03
2022-11-05T12:42:00.679Z,44.65
2022-11-05T12:44:52.208Z,45.20
2022-11-05T12:47:38.827Z,46.49
2022-11-05T12:50:16.911Z,47.75
2022-11-05T12:52:49.158Z,48.19
2022-11-05T12:55:20.405Z,48.83
2022-11-05T12:57:51.531Z,49.37
2022-11-05T13:00:20.285Z,50.17
2022-11-05T13:03:04.589Z,49.46
2022-11-05T13:10:42.722Z,49.81
2022-11-05T13:13:24.338Z,51.15
2022-11-05T13:15:52.431Z,51.82
2022-11-05T13:18:27.744Z,51.50
2022-11-05T13:20:56.244Z,52.25
2022-11-05T13:23:35.126Z,51.49
2022-11-05T13:26:37.360Z,51.84
2022-11-05T13:29:20.280Z,51.57
2022-11-05T13:31:58.602Z,52.33
2022-11-05T13:34:25.056Z,52.66
2022-11-05T13:37:15.418Z,52.83
2022-11-05T13:39:47.078Z,53.26
2022-11-05T13:42:35.879Z,53.08
2022-11-05T13:45:24.107Z,53.09
2022-11-05T13:48:29.290Z,54.34
2022-11-05T13:51:20.737Z,54.63
2022-11-05T13:54:15.549Z,54.79
2022-11-05T13:57:06.038Z,55.89
2022-11-05T13:59:55.326Z,55.97
2022-11-05T14:02:25.746Z,56.24
2022-11-05T14:05:00.927Z,56.58
2022-11-05T14:07:31.401Z,56.77
2022-11-05T14:10:09.993Z,56.88
2022-11-05T14:12:39.838Z,57.28
2022-11-05T14:15:24.509Z,57.45
2022-11-05T14:18:03.198Z,57.96
2022-11-05T14:20:32.524Z,58.34
2022-11-05T14:23:17.401Z,59.02
2022-11-05T14:25:43.755Z,59.01
2022-11-05T14:28:36.644Z,59.39
2022-11-05T14:31:20.089Z,59.33
2022-11-05T14:34:01.942Z,59.58
2022-11-05T14:36:30.295Z,59.88
2022-11-05T14:39:12.029Z,60.32
2022-11-05T14:41:57.008Z,60.47
2022-11-05T14:44:25.468Z,60.52
2022-11-05T14:46:56.032Z,60.77
2022-11-05T14:49:27.271Z,60.76
2022-11-05T14:51:56.474Z,61.20
2022-11-05T14:54:43.905Z,61.30
2022-11-05T14:57:42.210Z,61.81
2022-11-05T15:00:36.439Z,61.71
2022-11-05T15:03:24.499Z,62.00
2022-11-05T15:05:52.313Z,62.73
2022-11-05T15:08:29.686Z,63.00
2022-11-05T15:11:25.292Z,63.10
2022-11-05T15:14:05.441Z,63.39
2022-11-05T15:16:43.595Z,64.02
2022-11-05T15:19:20.017Z,64.35
2022-11-05T15:21:46.854Z,64.13
2022-11-05T15:24:19.546Z,64.51
2022-11-05T15:26:56.212Z,64.48
2022-11-05T15:29:26.787Z,64.36
2022-11-05T15:31:53.694Z,64.80
2022-11-05T15:34:24.632Z,64.86
2022-11-05T15:37:03.253Z,65.48
2022-11-05T15:39:40.274Z,65.21
2022-11-05T15:42:13.829Z,65.53
2022-11-05T15:44:42.690Z,65.85
2022-11-05T15:47:16.790Z,66.41
2022-11-05T15:49:46.594Z,66.43
2022-11-05T15:52:18.550Z,66.57
2022-11-05T15:54:45.576Z,66.78
2022-11-05T15:57:25.336Z,67.17
2022-11-05T15:59:51.837Z,66.86
2022-11-05T16:02:34.922Z,67.05
2022-11-05T16:05:09.594Z,67.45
2022-11-05T16:07:35.974Z,67.44
2022-11-05T16:10:06.056Z,67.23
2022-11-05T16:12:36.708Z,67.25
2022-11-05T16:15:08.759Z,67.67
2022-11-05T16:17:52.291Z,68.05
2022-11-05T16:20:27.384Z,68.16
2022-11-05T16:22:57.308Z,67.67
2022-11-05T16:25:39.651Z,68.13
2022-11-05T16:28:27.412Z,68.26
2022-11-05T16:31:05.226Z,68.45
2022-11-05T16:33:34.949Z,68.21
2022-11-05T16:36:01.375Z,68.26
2022-11-05T16:38:27.946Z,68.38
2022-11-05T16:40:54.292Z,68.74
2022-11-05T16:43:25.343Z,68.08
2022-11-05T16:45:57.251Z,68.63
2022-11-05T16:48:24.329Z,68.23
2022-11-05T16:50:51.212Z,69.05
2022-11-05T16:53:18.221Z,68.30
2022-11-05T16:55:45.693Z,68.53
2022-11-05T16:58:19.787Z,68.23
2022-11-05T17:00:47.088Z,68.73
2022-11-05T17:03:13.584Z,68.89
2022-11-05T17:05:39.935Z,69.01
2022-11-05T17:08:06.458Z,68.83
2022-11-05T17:10:32.901Z,68.71
2022-11-05T17:12:59.234Z,68.45
2022-11-05T17:15:31.147Z,68.83
2022-11-05T17:17:58.702Z,68.46
2022-11-05T17:20:44.214Z,68.70
2022-11-05T17:23:16.652Z,69.02
2022-11-05T17:25:45.702Z,69.02
2022-11-05T17:28:12.976Z,68.83
2022-11-05T17:30:41.615Z,68.73
2022-11-05T17:33:11.131Z,69.50
2022-11-05T17:35:39.907Z,69.45
2022-11-05T17:38:06.463Z,69.26
2022-11-05T17:40:34.501Z,69.19
2022-11-05T17:43:00.871Z,68.84
2022-11-05T17:45:27.382Z,69.21
2022-11-05T17:47:53.847Z,70.24
2022-11-05T17:50:20.279Z,70.10
2022-11-05T17:52:46.833Z,70.46
2022-11-05T17:55:17.449Z,70.22
2022-11-05T17:57:48.961Z,70.04
2022-11-05T18:00:18.241Z,70.07
2022-11-05T18:02:45.955Z,70.18
2022-11-05T18:05:12.496Z,70.49
2022-11-05T18:07:39.038Z,69.85
2022-11-05T18:10:06.490Z,70.36
2022-11-05T18:12:33.235Z,70.05
2022-11-05T18:14:59.668Z,69.58
2022-11-05T18:17:26.014Z,70.53
2022-11-05T18:19:52.442Z,70.31
2022-11-05T18:22:19.437Z,70.20
2022-11-05T18:24:46.535Z,69.78
2022-11-05T18:27:13.074Z,70.73
2022-11-05T18:29:39.498Z,70.29
2022-11-05T18:32:06.328Z,70.86
2022-11-05T18:34:32.904Z,70.69
2022-11-05T18:36:59.233Z,70.63
2022-11-05T18:39:26.329Z,70.04
2022-11-05T18:41:52.681Z,70.43
2022-11-05T18:44:22.794Z,70.42
2022-11-05T18:46:57.978Z,69.78
2022-11-05T18:49:25.729Z,69.98
2022-11-05T18:51:52.081Z,70.03
2022-11-05T18:54:18.891Z,70.00
2022-11-05T18:56:45.700Z,69.65
2022-11-05T18:59:35.955Z,69.25
2022-11-05T19:02:01.244Z,69.99
2022-11-05T19:04:27.822Z,69.74
2022-11-05T19:06:54.315Z,69.60
2022-11-05T19:09:20.778Z,69.86
2022-11-05T19:11:47.443Z,69.02
2022-11-05T19:14:13.793Z,69.41
2022-11-05T19:16:40.354Z,69.61
2022-11-05T19:19:06.909Z,68.92
2022-11-05T19:21:33.466Z,68.26
2022-11-05T19:24:03.326Z,68.67
2022-11-05T19:26:29.918Z,69.06
2022-11-05T19:29:01.632Z,68.83
2022-11-05T19:31:29.079Z,68.39
2022-11-05T19:33:55.938Z,68.74
2022-11-05T19:36:24.110Z,68.29
2022-11-05T19:38:59.666Z,67.82
2022-11-05T19:41:27.108Z,68.23
2022-11-05T19:43:54.809Z,68.06
2022-11-05T19:46:23.067Z,67.44
2022-11-05T19:48:51.065Z,68.12
2022-11-05T19:51:21.466Z,67.78
2022-11-05T19:53:48.419Z,67.89
2022-11-05T19:56:18.112Z,67.87
2022-11-05T19:58:45.052Z,68.13
2022-11-05T20:01:13.901Z,67.91
2022-11-05T20:03:40.841Z,68.34
2022-11-05T20:06:12.573Z,67.81
2022-11-05T20:08:59.718Z,68.74
2022-11-05T20:11:26.802Z,68.56
2022-11-05T20:13:53.250Z,69.72
2022-11-05T20:16:22.418Z,69.19
2022-11-05T20:18:48.866Z,68.99
2022-11-05T20:21:15.677Z,69.24
2022-11-05T20:23:42.662Z,69.00
2022-11-05T20:26:10.338Z,68.52
2022-11-05T20:28:38.505Z,69.59
2022-11-05T20:31:15.995Z,69.81
2022-11-05T20:33:43.818Z,69.31
2022-11-05T20:36:14.211Z,69.52
2022-11-05T20:38:40.669Z,69.65
2022-11-05T20:41:09.129Z,69.78
2022-11-05T20:43:36.721Z,70.26
2022-11-05T20:46:03.942Z,69.69
2022-11-05T20:48:32.451Z,69.34
2022-11-05T20:51:00.225Z,70.58
2022-11-05T20:53:26.747Z,69.81
2022-11-05T20:55:53.191Z,70.44
2022-11-05T20:58:19.550Z,70.28
2022-11-05T21:00:51.518Z,70.50
2022-11-05T21:03:18.898Z,69.64
2022-11-05T21:05:50.233Z,70.31
2022-11-05T21:08:16.754Z,70.05
2022-11-05T21:10:50.041Z,69.89
2022-11-05T21:13:17.643Z,70.18
2022-11-05T21:15:50.054Z,70.12
2022-11-05T21:18:21.574Z,69.72
2022-11-05T21:20:48.409Z,70.05
2022-11-05T21:23:15.561Z,70.27
2022-11-05T21:25:43.048Z,70.56
2022-11-05T21:28:11.207Z,70.54
2022-11-05T21:30:41.382Z,69.65
2022-11-05T21:33:08.786Z,70.79
2022-11-05T21:35:40.328Z,69.95
2022-11-05T21:38:07.267Z,70.90
2022-11-05T21:40:33.824Z,70.28
2022-11-05T21:43:00.182Z,70.74
2022-11-05T21:45:26.708Z,70.71
2022-11-05T21:47:53.215Z,69.90
2022-11-05T21:50:21.918Z,70.51
2022-11-05T21:53:07.073Z,70.20
2022-11-05T21:55:52.004Z,70.20
2022-11-05T21:58:37.504Z,69.28
2022-11-05T22:01:03.957Z,69.82
2022-11-05T22:03:30.355Z,70.76
2022-11-05T22:05:57.203Z,70.11
2022-11-05T22:08:23.553Z,71.04
2022-11-05T22:10:50.014Z,71.04
2022-11-05T22:13:16.560Z,71.02
2022-11-05T22:15:42.928Z,70.63
2022-11-05T22:18:09.642Z,71.29
2022-11-05T22:20:38.719Z,70.76
2022-11-05T22:23:10.076Z,70.75
2022-11-05T22:25:37.917Z,70.71
2022-11-05T22:28:04.489Z,70.49
2022-11-05T22:30:35.326Z,70.65
2022-11-05T22:33:02.388Z,70.63
2022-11-05T22:35:29.121Z,71.28
2022-11-05T22:37:55.465Z,71.14
2022-11-05T22:40:24.013Z,70.50
2022-11-05T22:42:50.749Z,71.65
2022-11-05T22:45:17.156Z,70.86
2022-11-05T22:47:43.565Z,70.68
2022-11-05T22:50:10.358Z,70.64
2022-11-05T22:52:36.710Z,71.27
2022-11-05T22:55:05.075Z,70.75
2022-11-05T22:57:31.570Z,70.77
2022-11-05T22:59:58.011Z,70.73
2022-11-05T23:02:24.729Z,70.59
2022-11-05T23:04:52.005Z,70.24
2022-11-05T23:07:37.280Z,71.09
2022-11-05T23:10:22.687Z,70.58
2022-11-05T23:12:49.205Z,70.32
2022-11-05T23:15:34.629Z,69.87
2022-11-05T23:18:20.000Z,69.66
2022-11-05T23:21:04.931Z,70.56
2022-11-05T23:23:49.785Z,70.04
2022-11-05T23:26:34.929Z,70.21
2022-11-05T23:29:01.307Z,69.78
2022-11-05T23:31:46.265Z,70.35
2022-11-05T23:34:12.626Z,70.50
2022-11-05T23:36:57.609Z,70.08
2022-11-05T23:39:23.989Z,70.62
2022-11-05T23:42:08.761Z,70.51
2022-11-05T23:44:53.635Z,70.35
2022-11-05T23:47:38.476Z,70.18
2022-11-05T23:50:05.344Z,70.73
2022-11-05T23:52:31.699Z,70.03
2022-11-05T23:54:58.044Z,70.30
2022-11-05T23:57:24.448Z,70.37
2022-11-05T23:59:50.789Z,70.00
